createdAt,value
2018-08-23T00:00:10.634Z,73.73
2018-08-23T00:01:10.580Z,73.63
2018-08-23T00:02:10.514Z,73.93
2018-08-23T00:03:10.516Z,73.63
2018-08-23T00:04:10.403Z,74.31
2018-08-23T00:05:10.342Z,73.54
2018-08-23T00:06:10.305Z,74.02
2018-08-23T00:07:10.232Z,73.83
2018-08-23T00:08:10.174Z,73.83
2018-08-23T00:09:10.114Z,73.83
2018-08-23T00:10:10.059Z,74.51
2018-08-23T00:11:10.004Z,74.51
2018-08-23T00:12:09.943Z,74.21
2018-08-23T00:13:09.888Z,73.93
2018-08-23T00:14:09.825Z,73.63
2018-08-23T00:15:09.770Z,73.73
2018-08-23T00:16:09.725Z,73.93
2018-08-23T00:17:09.651Z,73.31
2018-08-23T00:18:09.598Z,73.54
2018-08-23T00:19:09.549Z,73.44
2018-08-23T00:20:09.482Z,73.11
2018-08-23T00:21:09.421Z,73.25
2018-08-23T00:22:09.367Z,73.25
2018-08-23T00:23:09.306Z,72.67
2018-08-23T00:24:09.257Z,72.96
2018-08-23T00:25:09.193Z,72.28
2018-08-23T00:26:09.141Z,72.67
2018-08-23T00:27:09.107Z,73.15
2018-08-23T00:28:09.020Z,72.48
2018-08-23T00:29:08.963Z,72.73
2018-08-23T00:30:08.910Z,72.92
2018-08-23T00:31:08.847Z,73.21
2018-08-23T00:32:08.793Z,72.83
2018-08-23T00:33:08.734Z,73.31
2018-08-23T00:34:08.677Z,73.21
2018-08-23T00:35:08.617Z,73.41
2018-08-23T00:36:08.559Z,73.41
2018-08-23T00:37:08.497Z,73.60
2018-08-23T00:38:08.447Z,74.37
2018-08-23T00:39:08.390Z,73.89
2018-08-23T00:40:08.330Z,74.27
2018-08-23T00:41:08.269Z,74.18
2018-08-23T00:42:08.213Z,73.79
2018-08-23T00:43:08.160Z,74.18
2018-08-23T00:44:08.097Z,73.79
2018-08-23T00:45:08.045Z,73.60
2018-08-23T00:46:07.990Z,74.37
2018-08-23T00:47:07.926Z,74.57
2018-08-23T00:48:07.868Z,74.66
2018-08-23T00:49:07.808Z,74.57
2018-08-23T00:50:07.755Z,74.95
2018-08-23T00:51:07.693Z,74.57
2018-08-23T00:52:07.636Z,75.05
2018-08-23T00:53:07.578Z,74.76
2018-08-23T00:54:07.524Z,74.85
2018-08-23T00:55:07.464Z,75.34
2018-08-23T00:56:07.409Z,75.43
2018-08-23T00:57:07.350Z,74.95
2018-08-23T00:58:07.290Z,74.85
2018-08-23T00:59:07.251Z,74.85
2018-08-23T01:00:07.173Z,75.43
2018-08-23T01:01:07.115Z,74.47
2018-08-23T01:02:07.054Z,75.14
2018-08-23T01:03:07.016Z,74.85
2018-08-23T01:04:06.940Z,74.76
2018-08-23T01:05:06.885Z,74.85
2018-08-23T01:06:06.825Z,74.85
2018-08-23T01:07:06.768Z,74.76
2018-08-23T01:08:06.712Z,74.47
2018-08-23T01:09:06.654Z,75.53
2018-08-23T01:10:06.595Z,74.66
2018-08-23T01:11:06.543Z,75.05
2018-08-23T01:12:06.478Z,74.85
2018-08-23T01:13:06.423Z,74.66
2018-08-23T01:14:06.375Z,74.66
2018-08-23T01:15:06.306Z,75.24
2018-08-23T01:16:06.251Z,75.43
2018-08-23T01:17:06.328Z,74.66
2018-08-23T01:18:06.130Z,74.57
2018-08-23T01:19:06.077Z,74.85
2018-08-23T01:20:06.016Z,74.95
2018-08-23T01:21:05.974Z,74.85
2018-08-23T01:22:05.902Z,75.34
2018-08-23T01:23:05.840Z,75.34
2018-08-23T01:24:05.797Z,75.24
2018-08-23T01:25:05.726Z,76.20
2018-08-23T01:26:05.670Z,75.53
2018-08-23T01:27:05.611Z,76.68
2018-08-23T01:28:05.561Z,76.59
2018-08-23T01:29:05.498Z,76.50
2018-08-23T01:30:05.438Z,76.17
2018-08-23T01:31:05.377Z,76.45
2018-08-23T01:32:05.323Z,76.65
2018-08-23T01:33:05.264Z,76.45
2018-08-23T01:34:05.207Z,76.75
2018-08-23T01:35:05.155Z,77.03
2018-08-23T01:36:05.116Z,77.42
2018-08-23T01:37:05.030Z,77.42
2018-08-23T01:38:04.975Z,77.90
2018-08-23T01:39:04.916Z,77.61
2018-08-23T01:40:04.859Z,77.81
2018-08-23T01:41:04.799Z,77.81
2018-08-23T01:42:04.767Z,78.09
2018-08-23T01:43:04.683Z,78.77
2018-08-23T01:44:04.625Z,78.19
2018-08-23T01:45:04.577Z,78.09
2018-08-23T01:46:04.509Z,78.19
2018-08-23T01:47:04.452Z,78.38
2018-08-23T01:48:04.398Z,78.83
2018-08-23T01:49:04.338Z,78.73
2018-08-23T01:50:04.273Z,79.02
2018-08-23T01:51:04.223Z,79.02
2018-08-23T01:52:04.164Z,79.02
2018-08-23T01:53:04.104Z,78.92
2018-08-23T01:54:04.051Z,79.31
2018-08-23T01:55:03.995Z,78.54
2018-08-23T01:56:03.930Z,78.92
2018-08-23T01:57:03.870Z,78.83
2018-08-23T01:58:03.811Z,79.21
2018-08-23T01:59:03.754Z,78.73
2018-08-23T02:00:03.716Z,78.06
2018-08-23T02:01:03.637Z,78.06
2018-08-23T02:02:03.583Z,78.06
2018-08-23T02:03:03.531Z,78.92
2018-08-23T02:04:03.464Z,78.83
2018-08-23T02:05:03.406Z,78.25
2018-08-23T02:06:03.346Z,78.92
2018-08-23T02:07:03.292Z,78.06
2018-08-23T02:08:03.230Z,77.86
2018-08-23T02:09:03.171Z,78.83
2018-08-23T02:10:03.126Z,78.15
2018-08-23T02:11:03.060Z,78.44
2018-08-23T02:12:02.996Z,77.86
2018-08-23T02:13:02.938Z,78.54
2018-08-23T02:14:02.887Z,77.96
2018-08-23T02:15:02.825Z,77.86
2018-08-23T02:16:02.760Z,78.25
2018-08-23T02:17:02.706Z,78.92
2018-08-23T02:18:02.651Z,77.86
2018-08-23T02:19:02.590Z,78.40
2018-08-23T02:20:02.535Z,78.50
2018-08-23T02:21:02.475Z,78.06
2018-08-23T02:22:02.414Z,77.86
2018-08-23T02:23:02.356Z,78.73
2018-08-23T02:24:02.303Z,78.54
2018-08-23T02:25:02.261Z,78.54
2018-08-23T02:26:02.183Z,78.63
2018-08-23T02:27:02.129Z,78.79
2018-08-23T02:28:02.080Z,78.88
2018-08-23T02:29:02.010Z,79.27
2018-08-23T02:30:01.963Z,79.08
2018-08-23T02:31:01.895Z,79.08
2018-08-23T02:32:01.833Z,78.21
2018-08-23T02:33:01.782Z,78.69
2018-08-23T02:34:01.716Z,78.83
2018-08-23T02:35:01.685Z,78.06
2018-08-23T02:36:01.622Z,78.73
2018-08-23T02:37:01.543Z,78.73
2018-08-23T02:38:01.507Z,79.21
2018-08-23T02:39:01.426Z,79.11
2018-08-23T02:40:01.368Z,78.31
2018-08-23T02:41:01.313Z,78.88
2018-08-23T02:42:01.251Z,79.08
2018-08-23T02:43:01.214Z,78.59
2018-08-23T02:44:01.135Z,78.59
2018-08-23T02:45:01.074Z,79.36
2018-08-23T02:46:01.019Z,80.08
2018-08-23T02:47:00.960Z,79.60
2018-08-23T02:48:00.902Z,80.23
2018-08-23T02:49:00.841Z,80.43
2018-08-23T02:50:00.783Z,79.94
2018-08-23T02:51:00.726Z,80.91
2018-08-23T02:52:00.671Z,80.23
2018-08-23T02:53:00.609Z,80.62
2018-08-23T02:54:00.553Z,81.10
2018-08-23T02:55:00.496Z,80.23
2018-08-23T02:56:00.435Z,80.62
2018-08-23T02:57:00.380Z,80.62
2018-08-23T02:58:00.319Z,80.04
2018-08-23T02:59:00.264Z,80.04
2018-08-23T03:00:00.203Z,80.04
2018-08-23T03:01:00.144Z,80.23
2018-08-23T03:02:00.089Z,80.33
2018-08-23T03:03:00.027Z,80.62
2018-08-23T03:03:59.976Z,80.62
2018-08-23T03:04:59.916Z,80.81
2018-08-23T03:05:59.856Z,80.71
2018-08-23T03:06:59.791Z,81.01
2018-08-23T03:07:59.738Z,81.87
2018-08-23T03:08:59.676Z,80.71
2018-08-23T03:09:59.619Z,80.91
2018-08-23T03:10:59.560Z,80.81
2018-08-23T03:11:59.503Z,80.71
2018-08-23T03:12:59.445Z,80.81
2018-08-23T03:13:59.443Z,81.10
2018-08-23T03:14:59.330Z,80.71
2018-08-23T03:15:59.267Z,80.91
2018-08-23T03:16:59.210Z,81.29
2018-08-23T03:17:59.149Z,81.01
2018-08-23T03:18:59.110Z,80.71
2018-08-23T03:19:59.034Z,81.58
2018-08-23T03:20:58.982Z,81.68
2018-08-23T03:21:58.922Z,81.68
2018-08-23T03:22:58.856Z,81.96
2018-08-23T03:23:58.800Z,81.58
2018-08-23T03:24:58.743Z,81.39
2018-08-23T03:25:58.685Z,81.68
2018-08-23T03:26:58.632Z,82.26
2018-08-23T03:27:58.568Z,82.16
2018-08-23T03:28:58.509Z,82.64
2018-08-23T03:29:58.456Z,82.54
2018-08-23T03:30:58.406Z,82.26
2018-08-23T03:31:58.340Z,81.87
2018-08-23T03:32:58.274Z,82.45
2018-08-23T03:33:58.219Z,82.35
2018-08-23T03:34:58.164Z,82.26
2018-08-23T03:35:58.102Z,82.74
2018-08-23T03:36:58.041Z,82.16
2018-08-23T03:37:57.984Z,81.58
2018-08-23T03:38:57.926Z,82.06
2018-08-23T03:39:57.876Z,81.87
2018-08-23T03:40:57.820Z,81.96
2018-08-23T03:41:57.748Z,81.87
2018-08-23T03:42:57.694Z,81.39
2018-08-23T03:43:57.632Z,81.04
2018-08-23T03:44:57.580Z,80.76
2018-08-23T03:45:57.518Z,80.76
2018-08-23T03:46:57.460Z,80.43
2018-08-23T03:47:57.399Z,80.94
2018-08-23T03:48:57.344Z,81.04
2018-08-23T03:49:57.281Z,81.81
2018-08-23T03:50:57.224Z,80.94
2018-08-23T03:51:57.169Z,81.14
2018-08-23T03:52:57.107Z,81.14
2018-08-23T03:53:57.050Z,80.43
2018-08-23T03:54:56.990Z,80.94
2018-08-23T03:55:56.934Z,81.24
2018-08-23T03:56:56.872Z,81.81
2018-08-23T03:57:56.822Z,82.06
2018-08-23T03:58:56.781Z,81.87
2018-08-23T03:59:56.699Z,81.77
2018-08-23T04:00:56.667Z,82.06
2018-08-23T04:01:56.581Z,81.58
2018-08-23T04:02:56.530Z,81.68
2018-08-23T04:03:56.466Z,82.16
2018-08-23T04:04:56.408Z,81.87
2018-08-23T04:05:56.347Z,82.06
2018-08-23T04:06:56.299Z,82.54
2018-08-23T04:07:56.236Z,81.68
2018-08-23T04:08:56.174Z,81.87
2018-08-23T04:09:56.115Z,82.64
2018-08-23T04:10:56.056Z,82.26
2018-08-23T04:11:55.997Z,82.26
2018-08-23T04:12:55.946Z,82.35
2018-08-23T04:13:55.881Z,82.45
2018-08-23T04:14:55.824Z,82.35
2018-08-23T04:15:55.766Z,82.26
2018-08-23T04:16:55.704Z,82.06
2018-08-23T04:17:55.647Z,82.16
2018-08-23T04:18:55.586Z,81.96
2018-08-23T04:19:55.566Z,82.16
2018-08-23T04:20:55.479Z,82.64
2018-08-23T04:21:55.415Z,83.03
2018-08-23T04:22:55.406Z,81.96
2018-08-23T04:23:55.343Z,83.12
2018-08-23T04:24:55.274Z,82.83
2018-08-23T04:25:55.179Z,82.26
2018-08-23T04:26:55.129Z,82.74
2018-08-23T04:27:55.067Z,82.35
2018-08-23T04:28:55.007Z,82.06
2018-08-23T04:29:54.946Z,82.35
2018-08-23T04:30:54.889Z,82.35
2018-08-23T04:31:54.830Z,82.26
2018-08-23T04:32:54.770Z,81.87
2018-08-23T04:33:54.713Z,81.48
2018-08-23T04:34:54.654Z,81.24
2018-08-23T04:35:54.607Z,82.01
2018-08-23T04:36:54.537Z,82.01
2018-08-23T04:37:54.481Z,81.48
2018-08-23T04:38:54.424Z,82.16
2018-08-23T04:39:54.360Z,81.91
2018-08-23T04:40:54.303Z,81.20
2018-08-23T04:41:54.249Z,80.66
2018-08-23T04:42:54.183Z,81.62
2018-08-23T04:43:54.132Z,81.14
2018-08-23T04:44:54.067Z,81.62
2018-08-23T04:45:54.015Z,81.04
2018-08-23T04:46:53.963Z,80.94
2018-08-23T04:47:53.933Z,80.76
2018-08-23T04:48:53.851Z,81.04
2018-08-23T04:49:53.778Z,81.04
2018-08-23T04:50:53.726Z,80.66
2018-08-23T04:51:53.667Z,81.04
2018-08-23T04:52:53.609Z,80.66
2018-08-23T04:53:53.559Z,80.46
2018-08-23T04:54:53.522Z,79.69
2018-08-23T04:55:53.430Z,80.27
2018-08-23T04:56:53.371Z,81.14
2018-08-23T04:57:53.316Z,80.76
2018-08-23T04:58:53.285Z,80.27
2018-08-23T04:59:53.199Z,80.66
2018-08-23T05:00:53.141Z,80.56
2018-08-23T05:01:53.084Z,79.79
2018-08-23T05:02:53.023Z,80.56
2018-08-23T05:03:53.017Z,80.76
2018-08-23T05:04:52.901Z,81.62
2018-08-23T05:05:52.845Z,81.14
2018-08-23T05:06:52.786Z,80.76
2018-08-23T05:07:52.736Z,81.62
2018-08-23T05:08:52.672Z,81.04
2018-08-23T05:09:52.615Z,80.76
2018-08-23T05:10:52.559Z,81.14
2018-08-23T05:11:52.502Z,82.10
2018-08-23T05:12:52.443Z,81.04
2018-08-23T05:13:52.390Z,81.33
2018-08-23T05:14:52.320Z,81.72
2018-08-23T05:15:52.263Z,82.39
2018-08-23T05:16:52.228Z,81.81
2018-08-23T05:17:52.144Z,82.01
2018-08-23T05:18:52.085Z,82.20
2018-08-23T05:19:52.037Z,82.39
2018-08-23T05:20:51.971Z,82.29
2018-08-23T05:21:51.918Z,81.62
2018-08-23T05:22:51.854Z,81.33
2018-08-23T05:23:51.793Z,81.43
2018-08-23T05:24:51.738Z,81.33
2018-08-23T05:25:51.678Z,80.85
2018-08-23T05:26:51.619Z,81.14
2018-08-23T05:27:51.562Z,81.14
2018-08-23T05:28:51.504Z,81.24
2018-08-23T05:29:51.475Z,80.46
2018-08-23T05:30:51.393Z,80.27
2018-08-23T05:31:51.329Z,80.60
2018-08-23T05:32:51.274Z,80.37
2018-08-23T05:33:51.212Z,80.02
2018-08-23T05:34:51.155Z,80.41
2018-08-23T05:35:51.095Z,80.89
2018-08-23T05:36:51.038Z,79.93
2018-08-23T05:37:50.980Z,79.54
2018-08-23T05:38:50.920Z,79.74
2018-08-23T05:39:50.864Z,79.93
2018-08-23T05:40:50.803Z,79.16
2018-08-23T05:41:50.754Z,79.35
2018-08-23T05:42:50.697Z,79.16
2018-08-23T05:43:50.637Z,79.64
2018-08-23T05:44:50.573Z,79.64
2018-08-23T05:45:50.516Z,78.77
2018-08-23T05:46:50.457Z,79.35
2018-08-23T05:47:50.397Z,78.67
2018-08-23T05:48:50.338Z,78.81
2018-08-23T05:49:50.287Z,78.61
2018-08-23T05:50:50.222Z,78.81
2018-08-23T05:51:50.168Z,78.13
2018-08-23T05:52:50.110Z,77.94
2018-08-23T05:53:50.053Z,77.55
2018-08-23T05:54:49.993Z,78.13
2018-08-23T05:55:49.961Z,77.94
2018-08-23T05:56:49.877Z,77.36
2018-08-23T05:57:49.818Z,77.59
2018-08-23T05:58:49.805Z,77.40
2018-08-23T05:59:49.701Z,77.40
2018-08-23T06:00:49.683Z,77.40
2018-08-23T06:01:49.597Z,78.08
2018-08-23T06:02:49.583Z,77.30
2018-08-23T06:03:49.478Z,76.53
2018-08-23T06:04:49.420Z,76.72
2018-08-23T06:05:49.360Z,77.11
2018-08-23T06:06:49.339Z,76.24
2018-08-23T06:07:49.237Z,76.43
2018-08-23T06:08:49.187Z,76.24
2018-08-23T06:09:49.159Z,75.99
2018-08-23T06:10:49.067Z,76.09
2018-08-23T06:11:49.052Z,75.99
2018-08-23T06:12:48.958Z,75.89
2018-08-23T06:13:48.921Z,76.09
2018-08-23T06:14:48.865Z,76.09
2018-08-23T06:15:48.789Z,76.09
2018-08-23T06:16:48.741Z,75.22
2018-08-23T06:17:48.669Z,74.54
2018-08-23T06:18:48.611Z,75.51
2018-08-23T06:19:48.569Z,75.41
2018-08-23T06:20:48.489Z,75.06
2018-08-23T06:21:48.434Z,74.96
2018-08-23T06:22:48.377Z,74.48
2018-08-23T06:23:48.318Z,74.87
2018-08-23T06:24:48.261Z,74.87
2018-08-23T06:25:48.205Z,74.19
2018-08-23T06:26:48.143Z,73.90
2018-08-23T06:27:48.092Z,73.71
2018-08-23T06:28:48.030Z,73.32
2018-08-23T06:29:47.973Z,73.61
2018-08-23T06:30:47.921Z,73.80
2018-08-23T06:31:47.858Z,73.03
2018-08-23T06:32:47.885Z,73.07
2018-08-23T06:33:47.861Z,73.36
2018-08-23T06:34:47.684Z,72.30
2018-08-23T06:35:47.635Z,72.30
2018-08-23T06:36:47.571Z,72.68
2018-08-23T06:37:47.513Z,72.20
2018-08-23T06:38:47.486Z,71.62
2018-08-23T06:39:47.403Z,71.84
2018-08-23T06:40:47.343Z,71.56
2018-08-23T06:41:47.304Z,71.17
2018-08-23T06:42:47.261Z,70.50
2018-08-23T06:43:47.174Z,70.59
2018-08-23T06:44:47.115Z,70.78
2018-08-23T06:45:47.060Z,70.98
2018-08-23T06:46:47.002Z,70.40
2018-08-23T06:47:46.943Z,70.14
2018-08-23T06:48:46.930Z,70.14
2018-08-23T06:49:46.834Z,69.95
2018-08-23T06:50:46.778Z,69.85
2018-08-23T06:51:46.717Z,70.04
2018-08-23T06:52:46.657Z,69.37
2018-08-23T06:53:46.606Z,69.21
2018-08-23T06:54:46.550Z,69.21
2018-08-23T06:55:46.488Z,69.31
2018-08-23T06:56:46.435Z,69.01
2018-08-23T06:57:46.384Z,68.91
2018-08-23T06:58:46.334Z,68.73
2018-08-23T06:59:46.278Z,68.53
2018-08-23T07:00:46.201Z,68.91
2018-08-23T07:01:46.150Z,68.63
2018-08-23T07:02:46.091Z,68.63
2018-08-23T07:03:46.038Z,68.15
2018-08-23T07:04:45.979Z,68.33
2018-08-23T07:05:45.926Z,68.91
2018-08-23T07:06:45.890Z,68.82
2018-08-23T07:07:45.810Z,68.43
2018-08-23T07:08:45.750Z,68.82
2018-08-23T07:09:45.703Z,69.01
2018-08-23T07:10:45.654Z,67.98
2018-08-23T07:11:45.652Z,67.98
2018-08-23T07:12:45.559Z,68.37
2018-08-23T07:13:45.470Z,67.69
2018-08-23T07:14:45.417Z,67.66
2018-08-23T07:15:45.357Z,68.05
2018-08-23T07:16:45.299Z,67.76
2018-08-23T07:17:45.427Z,68.18
2018-08-23T07:18:45.197Z,68.08
2018-08-23T07:19:45.140Z,67.98
2018-08-23T07:20:45.077Z,67.85
2018-08-23T07:21:45.018Z,67.88
2018-08-23T07:22:44.964Z,67.60
2018-08-23T07:23:44.906Z,67.40
2018-08-23T07:24:44.846Z,68.18
2018-08-23T07:25:44.791Z,67.50
2018-08-23T07:26:44.777Z,67.60
2018-08-23T07:27:44.681Z,67.21
2018-08-23T07:28:44.622Z,67.69
2018-08-23T07:29:44.647Z,67.21
2018-08-23T07:30:44.512Z,67.30
2018-08-23T07:31:44.460Z,67.50
2018-08-23T07:32:44.399Z,67.30
2018-08-23T07:33:44.342Z,67.21
2018-08-23T07:34:44.284Z,67.63
2018-08-23T07:35:44.229Z,67.34
2018-08-23T07:36:44.170Z,66.56
2018-08-23T07:37:44.126Z,65.98
2018-08-23T07:38:44.060Z,66.27
2018-08-23T07:39:44.005Z,65.63
2018-08-23T07:40:43.949Z,65.24
2018-08-23T07:41:43.896Z,65.53
2018-08-23T07:42:43.834Z,65.92
2018-08-23T07:43:43.780Z,65.63
2018-08-23T07:44:43.724Z,65.63
2018-08-23T07:45:43.666Z,65.53
2018-08-23T07:46:43.610Z,65.72
2018-08-23T07:47:43.553Z,65.05
2018-08-23T07:48:43.536Z,65.43
2018-08-23T07:49:43.502Z,65.75
2018-08-23T07:50:43.384Z,65.37
2018-08-23T07:51:43.344Z,65.47
2018-08-23T07:52:43.287Z,65.37
2018-08-23T07:53:43.220Z,65.56
2018-08-23T07:54:43.163Z,65.17
2018-08-23T07:55:43.103Z,65.27
2018-08-23T07:56:43.050Z,65.11
2018-08-23T07:57:43.008Z,65.20
2018-08-23T07:58:42.943Z,65.50
2018-08-23T07:59:42.886Z,65.11
2018-08-23T08:00:42.827Z,65.47
2018-08-23T08:01:42.783Z,65.66
2018-08-23T08:02:42.715Z,65.75
2018-08-23T08:03:42.660Z,65.08
2018-08-23T08:04:42.603Z,64.50
2018-08-23T08:05:42.545Z,65.17
2018-08-23T08:06:42.527Z,65.47
2018-08-23T08:07:42.446Z,65.17
2018-08-23T08:08:42.382Z,65.85
2018-08-23T08:09:42.324Z,66.14
2018-08-23T08:10:42.271Z,66.30
2018-08-23T08:11:42.215Z,66.60
2018-08-23T08:12:42.160Z,67.37
2018-08-23T08:13:42.103Z,66.99
2018-08-23T08:14:42.061Z,66.69
2018-08-23T08:15:41.992Z,67.27
2018-08-23T08:16:41.954Z,66.24
2018-08-23T08:17:41.883Z,66.05
2018-08-23T08:18:41.823Z,66.34
2018-08-23T08:19:41.769Z,66.34
2018-08-23T08:20:41.713Z,65.85
2018-08-23T08:21:41.672Z,65.50
2018-08-23T08:22:41.603Z,65.59
2018-08-23T08:23:41.544Z,65.30
2018-08-23T08:24:41.488Z,65.11
2018-08-23T08:25:41.432Z,64.53
2018-08-23T08:26:41.377Z,64.62
2018-08-23T08:27:41.325Z,64.33
2018-08-23T08:28:41.269Z,63.95
2018-08-23T08:29:41.210Z,63.95
2018-08-23T08:30:41.160Z,64.14
2018-08-23T08:31:41.101Z,64.14
2018-08-23T08:32:41.045Z,64.04
2018-08-23T08:33:40.993Z,63.95
2018-08-23T08:34:40.932Z,64.62
2018-08-23T08:35:40.876Z,64.23
2018-08-23T08:36:40.826Z,63.98
2018-08-23T08:37:40.766Z,63.88
2018-08-23T08:38:40.712Z,63.49
2018-08-23T08:39:40.656Z,63.59
2018-08-23T08:40:40.600Z,63.01
2018-08-23T08:41:40.541Z,62.55
2018-08-23T08:42:40.489Z,62.65
2018-08-23T08:43:40.433Z,62.74
2018-08-23T08:44:40.380Z,62.55
2018-08-23T08:45:40.322Z,62.07
2018-08-23T08:46:40.263Z,62.65
2018-08-23T08:47:40.211Z,62.65
2018-08-23T08:48:40.154Z,62.16
2018-08-23T08:49:40.101Z,61.58
2018-08-23T08:50:40.048Z,61.87
2018-08-23T08:51:39.993Z,61.74
2018-08-23T08:52:39.942Z,62.32
2018-08-23T08:53:39.882Z,62.42
2018-08-23T08:54:39.823Z,62.13
2018-08-23T08:55:39.775Z,63.23
2018-08-23T08:56:39.717Z,63.59
2018-08-23T08:57:39.677Z,64.75
2018-08-23T08:58:39.600Z,65.24
2018-08-23T08:59:39.548Z,65.98
2018-08-23T09:00:39.490Z,66.69
2018-08-23T09:01:39.437Z,66.47
2018-08-23T09:02:39.381Z,66.27
2018-08-23T09:03:39.331Z,66.08
2018-08-23T09:04:39.271Z,66.27
2018-08-23T09:05:39.213Z,68.31
2018-08-23T09:06:39.160Z,68.31
2018-08-23T09:07:39.104Z,69.02
2018-08-23T09:08:39.048Z,69.22
2018-08-23T09:09:39.006Z,69.02
2018-08-23T09:10:38.939Z,67.76
2018-08-23T09:11:38.886Z,66.11
2018-08-23T09:12:38.826Z,65.95
2018-08-23T09:13:38.775Z,66.11
2018-08-23T09:14:38.724Z,67.41
2018-08-23T09:15:38.664Z,67.41
2018-08-23T09:16:38.606Z,67.63
2018-08-23T09:17:38.552Z,67.63
2018-08-23T09:18:38.553Z,68.02
2018-08-23T09:19:38.443Z,68.12
2018-08-23T09:20:38.504Z,66.76
2018-08-23T09:21:38.333Z,67.15
2018-08-23T09:22:38.280Z,65.27
2018-08-23T09:23:38.228Z,66.72
2018-08-23T09:24:38.169Z,67.80
2018-08-23T09:25:38.111Z,69.02
2018-08-23T09:26:38.057Z,67.96
2018-08-23T09:27:38.003Z,68.54
2018-08-23T09:28:37.947Z,69.15
2018-08-23T09:29:37.893Z,69.02
2018-08-23T09:30:37.837Z,69.74
2018-08-23T09:31:37.782Z,69.25
2018-08-23T09:32:37.726Z,67.89
2018-08-23T09:33:37.674Z,68.28
2018-08-23T09:34:37.612Z,67.60
2018-08-23T09:35:37.565Z,66.14
2018-08-23T09:36:37.505Z,67.99
2018-08-23T09:37:37.452Z,67.11
2018-08-23T09:38:37.397Z,66.53
2018-08-23T09:39:37.341Z,65.85
2018-08-23T09:40:37.287Z,66.05
2018-08-23T09:41:37.234Z,65.37
2018-08-23T09:42:37.180Z,65.47
2018-08-23T09:43:37.123Z,65.56
2018-08-23T09:44:37.065Z,66.08
2018-08-23T09:45:37.019Z,65.59
2018-08-23T09:46:36.961Z,65.30
2018-08-23T09:47:36.906Z,63.84
2018-08-23T09:48:36.846Z,64.14
2018-08-23T09:49:36.797Z,63.17
2018-08-23T09:50:36.761Z,64.04
2018-08-23T09:51:36.686Z,63.55
2018-08-23T09:52:36.630Z,62.29
2018-08-23T09:53:36.573Z,60.54
2018-08-23T09:54:36.518Z,61.05
2018-08-23T09:55:36.466Z,61.83
2018-08-23T09:56:36.492Z,61.54
2018-08-23T09:57:36.397Z,62.23
2018-08-23T09:58:36.303Z,61.74
2018-08-23T09:59:36.245Z,61.83
2018-08-23T10:00:36.192Z,61.74
2018-08-23T10:01:36.147Z,59.21
2018-08-23T10:02:36.080Z,57.49
2018-08-23T10:03:36.030Z,58.46
2018-08-23T10:04:36.016Z,58.17
2018-08-23T10:05:35.923Z,57.20
2018-08-23T10:06:35.861Z,57.46
2018-08-23T10:07:35.810Z,57.68
2018-08-23T10:08:35.768Z,58.95
2018-08-23T10:09:35.695Z,58.46
2018-08-23T10:10:35.649Z,58.07
2018-08-23T10:11:35.681Z,57.22
2018-08-23T10:12:35.539Z,57.32
2018-08-23T10:13:35.491Z,57.42
2018-08-23T10:14:35.428Z,57.35
2018-08-23T10:15:35.392Z,57.22
2018-08-23T10:16:35.319Z,56.54
2018-08-23T10:17:35.260Z,55.96
2018-08-23T10:18:35.214Z,55.76
2018-08-23T10:19:35.167Z,55.47
2018-08-23T10:20:35.106Z,54.79
2018-08-23T10:21:35.054Z,54.99
2018-08-23T10:22:35.000Z,55.66
2018-08-23T10:23:34.937Z,54.79
2018-08-23T10:24:34.882Z,54.50
2018-08-23T10:25:34.830Z,54.79
2018-08-23T10:26:34.795Z,55.54
2018-08-23T10:27:34.717Z,55.27
2018-08-23T10:28:34.680Z,55.76
2018-08-23T10:29:34.609Z,55.08
2018-08-23T10:30:34.554Z,55.64
2018-08-23T10:31:34.505Z,54.69
2018-08-23T10:32:34.446Z,54.30
2018-08-23T10:33:34.393Z,55.08
2018-08-23T10:34:34.345Z,55.47
2018-08-23T10:35:34.282Z,55.66
2018-08-23T10:36:34.231Z,55.37
2018-08-23T10:37:34.172Z,55.96
2018-08-23T10:38:34.127Z,56.84
2018-08-23T10:39:34.076Z,56.93
2018-08-23T10:40:42.754Z,56.93
2018-08-23T10:42:36.409Z,55.50
2018-08-23T10:43:27.235Z,54.16
2018-08-23T10:44:27.202Z,54.55
2018-08-23T10:45:27.121Z,54.68
2018-08-23T10:46:27.066Z,54.09
2018-08-23T10:47:27.014Z,53.80
2018-08-23T10:48:26.992Z,52.34
2018-08-23T10:49:26.934Z,52.17
2018-08-23T10:50:26.850Z,51.56
2018-08-23T10:51:26.795Z,51.26
2018-08-23T10:52:26.749Z,50.97
2018-08-23T10:53:26.695Z,51.26
2018-08-23T10:54:26.635Z,50.58
2018-08-23T10:55:26.578Z,51.36
2018-08-23T10:56:26.526Z,51.56
2018-08-23T10:57:26.482Z,51.56
2018-08-23T10:58:26.414Z,51.46
2018-08-23T10:59:26.365Z,51.46
2018-08-23T11:00:26.313Z,51.95
2018-08-23T11:01:26.255Z,52.04
2018-08-23T11:02:26.218Z,51.56
2018-08-23T11:03:26.147Z,51.85
2018-08-23T11:04:26.096Z,52.24
2018-08-23T11:05:26.041Z,52.14
2018-08-23T11:06:25.989Z,51.58
2018-08-23T11:07:25.934Z,51.39
2018-08-23T11:08:25.879Z,50.70
2018-08-23T11:09:25.828Z,50.41
2018-08-23T11:10:25.770Z,50.70
2018-08-23T11:11:25.717Z,50.41
2018-08-23T11:12:25.663Z,50.97
2018-08-23T11:13:25.607Z,51.65
2018-08-23T11:14:25.575Z,52.34
2018-08-23T11:15:25.506Z,52.99
2018-08-23T11:16:25.446Z,52.48
2018-08-23T11:17:25.392Z,53.23
2018-08-23T11:18:25.336Z,53.81
2018-08-23T11:19:25.288Z,55.08
2018-08-23T11:20:25.231Z,55.47
2018-08-23T11:21:25.178Z,55.47
2018-08-23T11:22:25.121Z,55.57
2018-08-23T11:23:25.079Z,55.66
2018-08-23T11:24:25.026Z,55.44
2018-08-23T11:25:24.968Z,55.54
2018-08-23T11:26:24.914Z,55.44
2018-08-23T11:27:24.847Z,56.22
2018-08-23T11:28:24.794Z,56.41
2018-08-23T11:29:24.808Z,56.03
2018-08-23T11:30:24.691Z,57.59
2018-08-23T11:31:24.640Z,57.97
2018-08-23T11:32:24.577Z,58.07
2018-08-23T11:33:24.528Z,58.17
2018-08-23T11:34:24.475Z,58.07
2018-08-23T11:35:24.417Z,58.46
2018-08-23T11:36:24.383Z,58.36
2018-08-23T11:37:24.317Z,58.43
2018-08-23T11:38:24.281Z,57.95
2018-08-23T11:39:24.201Z,57.65
2018-08-23T11:40:24.147Z,57.65
2018-08-23T11:41:24.101Z,57.46
2018-08-23T11:42:24.036Z,57.26
2018-08-23T11:43:24.001Z,57.26
2018-08-23T11:44:23.928Z,57.36
2018-08-23T11:45:23.872Z,57.56
2018-08-23T11:46:23.840Z,57.46
2018-08-23T11:47:23.772Z,57.36
2018-08-23T11:48:23.710Z,57.26
2018-08-23T11:49:23.657Z,57.75
2018-08-23T11:50:23.601Z,57.26
2018-08-23T11:51:23.547Z,57.56
2018-08-23T11:52:23.494Z,57.62
2018-08-23T11:53:23.622Z,58.40
2018-08-23T11:54:23.404Z,58.31
2018-08-23T11:55:23.333Z,58.50
2018-08-23T11:56:23.278Z,58.59
2018-08-23T11:57:23.225Z,59.08
2018-08-23T11:58:23.167Z,58.69
2018-08-23T11:59:23.107Z,58.98
2018-08-23T12:00:23.078Z,58.98
2018-08-23T12:01:23.009Z,59.38
2018-08-23T12:02:22.960Z,59.54
2018-08-23T12:03:22.900Z,59.92
2018-08-23T12:04:22.837Z,59.83
2018-08-23T12:05:22.790Z,59.74
2018-08-23T12:06:22.811Z,60.02
2018-08-23T12:07:22.674Z,59.83
2018-08-23T12:08:22.614Z,60.12
2018-08-23T12:09:22.560Z,59.18
2018-08-23T12:10:22.506Z,59.15
2018-08-23T12:11:22.461Z,58.37
2018-08-23T12:12:22.402Z,58.98
2018-08-23T12:13:22.344Z,59.08
2018-08-23T12:14:22.292Z,58.31
2018-08-23T12:15:22.237Z,58.31
2018-08-23T12:16:22.183Z,57.62
2018-08-23T12:17:22.130Z,58.21
2018-08-23T12:18:22.064Z,58.50
2018-08-23T12:19:22.013Z,58.01
2018-08-23T12:20:21.958Z,58.31
2018-08-23T12:21:21.903Z,57.92
2018-08-23T12:22:21.856Z,58.40
2018-08-23T12:23:21.787Z,58.28
2018-08-23T12:24:21.739Z,58.28
2018-08-23T12:25:21.681Z,58.57
2018-08-23T12:26:21.740Z,58.57
2018-08-23T12:27:21.595Z,58.67
2018-08-23T12:28:21.519Z,58.21
2018-08-23T12:29:21.469Z,58.21
2018-08-23T12:30:21.407Z,58.50
2018-08-23T12:31:21.358Z,57.89
2018-08-23T12:32:21.305Z,59.38
2018-08-23T12:33:21.242Z,60.05
2018-08-23T12:34:21.192Z,60.54
2018-08-23T12:35:21.133Z,60.83
2018-08-23T12:36:21.081Z,60.74
2018-08-23T12:37:21.031Z,60.54
2018-08-23T12:38:20.967Z,60.05
2018-08-23T12:39:20.940Z,58.89
2018-08-23T12:40:20.904Z,57.72
2018-08-23T12:41:20.815Z,57.26
2018-08-23T12:42:20.745Z,56.39
2018-08-23T12:43:20.708Z,55.61
2018-08-23T12:44:20.643Z,54.80
2018-08-23T12:45:20.585Z,54.13
2018-08-23T12:46:20.590Z,54.64
2018-08-23T12:47:20.471Z,54.74
2018-08-23T12:48:20.418Z,55.61
2018-08-23T12:49:20.392Z,56.00
2018-08-23T12:50:20.310Z,55.71
2018-08-23T12:51:20.262Z,55.03
2018-08-23T12:52:20.196Z,54.35